Shelton, Idaho
Current Conditions -  °F | °C
As of 9:53 PM on Wednesday 22 Oct 2014 (Local Time) from KIDA Reporting Station
Scattered Clouds Scattered Clouds  
Wind Chill: 39°   Ceiling: Unl
Heat Index: 43°   Visibility: 10mi
Dew Point: 30°   Wind: 6mph
Humidity: 60%   Direction: 200°SSW
Pressure: 30.15"   Gusts: NA
Location:  43.498°N, 111.73°W
Report Text: KIDA 230353Z 20005KT 10SM SCT085 06/M01 A3015 RMK AO2 SLP214 T00611011
Loading
Personal Weather Stations






























Interactive Weather Map
Tropical Storm Tracking
New forecast layout! Learn more

10-Day Weather Forecast

Advertisements
Track Severe Weather on mobile